Casey Creek, Kentucky
Current Conditions -  °F | °C
As of 4:19 AM on Monday 26 Jan 2015 (Local Time) from KEKQ Reporting Station
Light Snow Light Snow  
Wind Chill: 29°   Ceiling: 600
Heat Index: 37°   Visibility: 4mi
Dew Point: 36°   Wind: 13mph
Humidity: 93%   Direction: 330°NNW
Pressure: 29.77"   Gusts: 22mph
Location:  37.112°N, 85.2724°W
Report Text: KEKQ 261019Z AUTO 33011G19KT 4SM -SN BR OVC006 03/02 A2977 RMK AO2 P0001
Loading
Personal Weather Stations






























Interactive Weather Map New forecast layout! Learn more

10-Day Weather Forecast

Advertisements
Track Severe Weather on mobile